sensor_id;sensor_type;location;lat;lon;timestamp;pressure;altitude;pressure_sealevel;temperature;humidity
47524;BME280;33253;42.144;25.884;2023-03-23T00:01:13;100520.47;;;9.15;100.00
47524;BME280;33253;42.144;25.884;2023-03-23T00:03:40;100508.88;;;9.05;100.00
47524;BME280;33253;42.144;25.884;2023-03-23T00:06:07;100498.78;;;8.90;100.00
47524;BME280;33253;42.144;25.884;2023-03-23T00:08:43;100517.75;;;8.93;100.00
47524;BME280;33253;42.144;25.884;2023-03-23T00:13:41;100499.31;;;8.83;100.00
47524;BME280;33253;42.144;25.884;2023-03-23T00:16:07;100503.88;;;8.89;100.00
47524;BME280;33253;42.144;25.884;2023-03-23T00:18:45;100503.06;;;8.90;100.00
47524;BME280;33253;42.144;25.884;2023-03-23T00:21:11;100499.59;;;8.89;100.00
47524;BME280;33253;42.144;25.884;2023-03-23T00:23:36;100509.97;;;8.91;100.00
47524;BME280;33253;42.144;25.884;2023-03-23T00:26:03;100511.38;;;8.84;100.00
47524;BME280;33253;42.144;25.884;2023-03-23T00:28:29;100508.69;;;8.81;100.00
47524;BME280;33253;42.144;25.884;2023-03-23T00:30:59;100519.78;;;8.80;100.00
47524;BME280;33253;42.144;25.884;2023-03-23T00:33:26;100507.66;;;8.78;100.00
47524;BME280;33253;42.144;25.884;2023-03-23T00:35:53;100499.44;;;8.67;100.00
47524;BME280;33253;42.144;25.884;2023-03-23T00:38:20;100492.34;;;8.61;100.00
47524;BME280;33253;42.144;25.884;2023-03-23T00:40:46;100512.66;;;8.74;100.00
47524;BME280;33253;42.144;25.884;2023-03-23T00:43:14;100505.03;;;8.76;100.00
47524;BME280;33253;42.144;25.884;2023-03-23T00:45:42;100509.41;;;8.59;100.00
47524;BME280;33253;42.144;25.884;2023-03-23T00:48:13;100504.72;;;8.50;100.00
47524;BME280;33253;42.144;25.884;2023-03-23T00:50:39;100499.56;;;8.50;100.00
47524;BME280;33253;42.144;25.884;2023-03-23T00:53:04;100499.78;;;8.55;100.00
47524;BME280;33253;42.144;25.884;2023-03-23T00:55:30;100502.69;;;8.63;100.00
47524;BME280;33253;42.144;25.884;2023-03-23T00:57:56;100498.63;;;8.68;100.00
47524;BME280;33253;42.144;25.884;2023-03-23T01:00:22;100481.59;;;8.70;100.00
47524;BME280;33253;42.144;25.884;2023-03-23T01:02:48;100496.41;;;8.76;100.00
47524;BME280;33253;42.144;25.884;2023-03-23T01:05:17;100457.00;;;8.39;100.00
47524;BME280;33253;42.144;25.884;2023-03-23T01:07:42;100501.06;;;8.65;100.00
47524;BME280;33253;42.144;25.884;2023-03-23T01:10:10;100463.53;;;8.32;100.00
47524;BME280;33253;42.144;25.884;2023-03-23T01:12:38;100485.91;;;8.51;100.00
47524;BME280;33253;42.144;25.884;2023-03-23T01:15:05;100495.28;;;8.51;100.00
47524;BME280;33253;42.144;25.884;2023-03-23T01:17:31;100489.72;;;8.41;100.00
47524;BME280;33253;42.144;25.884;2023-03-23T01:19:56;100490.72;;;8.45;100.00
47524;BME280;33253;42.144;25.884;2023-03-23T01:22:22;100481.94;;;8.40;100.00
47524;BME280;33253;42.144;25.884;2023-03-23T01:24:47;100482.06;;;8.43;100.00
47524;BME280;33253;42.144;25.884;2023-03-23T01:27:12;100492.06;;;8.37;100.00
47524;BME280;33253;42.144;25.884;2023-03-23T01:29:38;100460.34;;;8.18;100.00
47524;BME280;33253;42.144;25.884;2023-03-23T01:32:03;100480.63;;;8.30;100.00
47524;BME280;33253;42.144;25.884;2023-03-23T01:34:29;100493.03;;;8.39;100.00
47524;BME280;33253;42.144;25.884;2023-03-23T01:36:55;100491.25;;;8.38;100.00
47524;BME280;33253;42.144;25.884;2023-03-23T01:39:20;100493.31;;;8.27;100.00
47524;BME280;33253;42.144;25.884;2023-03-23T01:41:46;100491.66;;;8.28;100.00
47524;BME280;33253;42.144;25.884;2023-03-23T01:47:21;100489.66;;;8.40;100.00
47524;BME280;33253;42.144;25.884;2023-03-23T01:49:49;100464.16;;;8.26;100.00
47524;BME280;33253;42.144;25.884;2023-03-23T01:52:23;100484.28;;;8.35;100.00
47524;BME280;33253;42.144;25.884;2023-03-23T01:54:53;100489.72;;;8.41;100.00
47524;BME280;33253;42.144;25.884;2023-03-23T01:57:21;100492.06;;;8.37;100.00
47524;BME280;33253;42.144;25.884;2023-03-23T01:59:51;100477.44;;;8.36;100.00
47524;BME280;33253;42.144;25.884;2023-03-23T02:02:19;100488.00;;;8.42;100.00
47524;BME280;33253;42.144;25.884;2023-03-23T02:04:46;100463.88;;;8.20;100.00
47524;BME280;33253;42.144;25.884;2023-03-23T02:07:12;100447.81;;;8.06;100.00
47524;BME280;33253;42.144;25.884;2023-03-23T02:09:39;100494.63;;;8.37;100.00
47524;BME280;33253;42.144;25.884;2023-03-23T02:12:05;100505.88;;;8.39;100.00
47524;BME280;33253;42.144;25.884;2023-03-23T02:14:30;100486.16;;;8.39;100.00
47524;BME280;33253;42.144;25.884;2023-03-23T02:17:04;100496.31;;;8.54;100.00
47524;BME280;33253;42.144;25.884;2023-03-23T02:27:55;100502.19;;;8.70;100.00
47524;BME280;33253;42.144;25.884;2023-03-23T02:35:48;100518.16;;;8.63;100.00
47524;BME280;33253;42.144;25.884;2023-03-23T02:38:18;100480.75;;;8.33;100.00
47524;BME280;33253;42.144;25.884;2023-03-23T02:40:48;100512.06;;;8.42;100.00
47524;BME280;33253;42.144;25.884;2023-03-23T02:43:18;100512.78;;;8.40;100.00
47524;BME280;33253;42.144;25.884;2023-03-23T02:45:45;100508.16;;;8.33;100.00
47524;BME280;33253;42.144;25.884;2023-03-23T02:48:13;100513.16;;;8.30;100.00
47524;BME280;33253;42.144;25.884;2023-03-23T02:50:43;100506.47;;;8.33;100.00
47524;BME280;33253;42.144;25.884;2023-03-23T02:53:11;100519.63;;;8.39;100.00
47524;BME280;33253;42.144;25.884;2023-03-23T02:55:41;100504.97;;;8.38;100.00
47524;BME280;33253;42.144;25.884;2023-03-23T02:58:09;100523.28;;;8.45;100.00
47524;BME280;33253;42.144;25.884;2023-03-23T03:00:35;100519.03;;;8.45;100.00
47524;BME280;33253;42.144;25.884;2023-03-23T03:03:02;100521.59;;;8.45;100.00
47524;BME280;33253;42.144;25.884;2023-03-23T03:08:18;100528.41;;;8.45;100.00
47524;BME280;33253;42.144;25.884;2023-03-23T03:10:56;100523.97;;;8.40;100.00
47524;BME280;33253;42.144;25.884;2023-03-23T03:13:32;100513.75;;;8.24;100.00
47524;BME280;33253;42.144;25.884;2023-03-23T03:18:37;100508.84;;;8.10;100.00
47524;BME280;33253;42.144;25.884;2023-03-23T03:21:07;100507.25;;;8.13;100.00
47524;BME280;33253;42.144;25.884;2023-03-23T03:23:37;100531.59;;;8.21;100.00
47524;BME280;33253;42.144;25.884;2023-03-23T03:26:04;100528.97;;;8.19;100.00
47524;BME280;33253;42.144;25.884;2023-03-23T03:28:32;100533.03;;;8.14;100.00
47524;BME280;33253;42.144;25.884;2023-03-23T03:30:58;100529.72;;;8.17;100.00
47524;BME280;33253;42.144;25.884;2023-03-23T03:33:28;100526.91;;;8.12;100.00
47524;BME280;33253;42.144;25.884;2023-03-23T03:35:57;100528.97;;;8.19;100.00
47524;BME280;33253;42.144;25.884;2023-03-23T03:38:24;100531.47;;;8.18;100.00
47524;BME280;33253;42.144;25.884;2023-03-23T03:40:50;100527.81;;;8.13;100.00
47524;BME280;33253;42.144;25.884;2023-03-23T03:43:16;100529.78;;;8.18;100.00
47524;BME280;33253;42.144;25.884;2023-03-23T03:45:42;100542.50;;;8.15;100.00
47524;BME280;33253;42.144;25.884;2023-03-23T03:48:08;100525.88;;;8.08;100.00
47524;BME280;33253;42.144;25.884;2023-03-23T03:50:34;100542.50;;;8.15;100.00
47524;BME280;33253;42.144;25.884;2023-03-23T03:52:59;100523.13;;;8.04;100.00
47524;BME280;33253;42.144;25.884;2023-03-23T03:55:25;100500.19;;;7.90;100.00
47524;BME280;33253;42.144;25.884;2023-03-23T03:57:53;100521.34;;;8.03;100.00
47524;BME280;33253;42.144;25.884;2023-03-23T04:00:20;100544.28;;;8.16;100.00
47524;BME280;33253;42.144;25.884;2023-03-23T04:02:48;100541.75;;;8.18;100.00
47524;BME280;33253;42.144;25.884;2023-03-23T04:05:17;100532.34;;;8.18;100.00
47524;BME280;33253;42.144;25.884;2023-03-23T04:07:44;100537.03;;;8.27;100.00
47524;BME280;33253;42.144;25.884;2023-03-23T04:10:11;100540.81;;;8.34;100.00
47524;BME280;33253;42.144;25.884;2023-03-23T04:12:38;100541.16;;;8.41;100.00
47524;BME280;33253;42.144;25.884;2023-03-23T04:15:04;100543.06;;;8.46;100.00
47524;BME280;33253;42.144;25.884;2023-03-23T04:17:30;100532.34;;;8.36;100.00
47524;BME280;33253;42.144;25.884;2023-03-23T04:19:56;100544.06;;;8.48;100.00
47524;BME280;33253;42.144;25.884;2023-03-23T04:22:23;100550.22;;;8.51;100.00
47524;BME280;33253;42.144;25.884;2023-03-23T04:24:57;100551.25;;;8.55;100.00
47524;BME280;33253;42.144;25.884;2023-03-23T04:27:25;100550.63;;;8.61;100.00
47524;BME280;33253;42.144;25.884;2023-03-23T04:29:53;100555.84;;;8.62;100.00
47524;BME280;33253;42.144;25.884;2023-03-23T04:32:19;100548.00;;;8.59;100.00
47524;BME280;33253;42.144;25.884;2023-03-23T04:34:44;100551.53;;;8.61;100.00
47524;BME280;33253;42.144;25.884;2023-03-23T04:37:10;100556.97;;;8.67;100.00
47524;BME280;33253;42.144;25.884;2023-03-23T04:39:35;100547.53;;;8.68;100.00
47524;BME280;33253;42.144;25.884;2023-03-23T04:42:01;100556.13;;;8.68;100.00
47524;BME280;33253;42.144;25.884;2023-03-23T04:44:27;100556.75;;;8.63;100.00
47524;BME280;33253;42.144;25.884;2023-03-23T04:46:53;100561.00;;;8.44;100.00
47524;BME280;33253;42.144;25.884;2023-03-23T04:49:19;100543.66;;;8.22;100.00
47524;BME280;33253;42.144;25.884;2023-03-23T04:51:47;100517.97;;;8.04;100.00
47524;BME280;33253;42.144;25.884;2023-03-23T04:54:13;100566.53;;;8.34;100.00
47524;BME280;33253;42.144;25.884;2023-03-23T04:56:39;100557.09;;;8.34;100.00
47524;BME280;33253;42.144;25.884;2023-03-23T04:59:06;100568.66;;;8.42;100.00
47524;BME280;33253;42.144;25.884;2023-03-23T05:01:31;100577.56;;;8.49;100.00
47524;BME280;33253;42.144;25.884;2023-03-23T05:03:59;100570.72;;;8.50;100.00
47524;BME280;33253;42.144;25.884;2023-03-23T05:06:25;100573.88;;;8.44;100.00
47524;BME280;33253;42.144;25.884;2023-03-23T05:08:51;100578.53;;;8.51;100.00
47524;BME280;33253;42.144;25.884;2023-03-23T05:11:16;100578.59;;;8.53;100.00
47524;BME280;33253;42.144;25.884;2023-03-23T05:13:42;100585.84;;;8.62;100.00
47524;BME280;33253;42.144;25.884;2023-03-23T05:16:09;100578.13;;;8.62;100.00
47524;BME280;33253;42.144;25.884;2023-03-23T05:18:35;100579.38;;;8.70;100.00
47524;BME280;33253;42.144;25.884;2023-03-23T05:21:02;100590.56;;;8.70;100.00
47524;BME280;33253;42.144;25.884;2023-03-23T05:23:28;100578.56;;;8.71;100.00
47524;BME280;33253;42.144;25.884;2023-03-23T05:25:57;100596.72;;;8.74;100.00
47524;BME280;33253;42.144;25.884;2023-03-23T05:28:26;100592.31;;;8.71;100.00
47524;BME280;33253;42.144;25.884;2023-03-23T05:30:53;100601.72;;;8.71;100.00
47524;BME280;33253;42.144;25.884;2023-03-23T05:33:19;100576.88;;;8.53;100.00
47524;BME280;33253;42.144;25.884;2023-03-23T05:35:46;100581.47;;;8.59;100.00
47524;BME280;33253;42.144;25.884;2023-03-23T05:38:13;100586.22;;;8.69;100.00
47524;BME280;33253;42.144;25.884;2023-03-23T05:40:40;100601.25;;;8.80;100.00
47524;BME280;33253;42.144;25.884;2023-03-23T05:43:07;100517.44;;;8.29;100.00
47524;BME280;33253;42.144;25.884;2023-03-23T05:45:33;100563.38;;;8.57;100.00
47524;BME280;33253;42.144;25.884;2023-03-23T05:47:59;100594.66;;;8.85;100.00
47524;BME280;33253;42.144;25.884;2023-03-23T05:50:25;100600.84;;;8.88;100.00
47524;BME280;33253;42.144;25.884;2023-03-23T05:52:50;100553.38;;;8.64;100.00
47524;BME280;33253;42.144;25.884;2023-03-23T05:55:16;100609.03;;;8.99;100.00
47524;BME280;33253;42.144;25.884;2023-03-23T05:57:42;100613.53;;;9.03;100.00
47524;BME280;33253;42.144;25.884;2023-03-23T06:00:08;100619.06;;;9.13;100.00
47524;BME280;33253;42.144;25.884;2023-03-23T06:02:36;100609.66;;;9.13;100.00
47524;BME280;33253;42.144;25.884;2023-03-23T06:05:02;100614.63;;;9.09;100.00
47524;BME280;33253;42.144;25.884;2023-03-23T06:07:27;100619.06;;;9.13;100.00
47524;BME280;33253;42.144;25.884;2023-03-23T06:10:13;100608.56;;;9.08;100.00
47524;BME280;33253;42.144;25.884;2023-03-23T06:12:40;100607.63;;;9.06;100.00
47524;BME280;33253;42.144;25.884;2023-03-23T06:15:06;100617.31;;;9.12;100.00
47524;BME280;33253;42.144;25.884;2023-03-23T06:17:33;100606.78;;;9.07;100.00
47524;BME280;33253;42.144;25.884;2023-03-23T06:19:59;100619.41;;;9.20;100.00
47524;BME280;33253;42.144;25.884;2023-03-23T06:22:25;100606.88;;;9.09;100.00
47524;BME280;33253;42.144;25.884;2023-03-23T06:24:50;100627.88;;;9.18;100.00
47524;BME280;33253;42.144;25.884;2023-03-23T06:27:16;100620.22;;;9.19;100.00
47524;BME280;33253;42.144;25.884;2023-03-23T06:29:42;100631.75;;;9.28;100.00
47524;BME280;33253;42.144;25.884;2023-03-23T06:32:10;100633.38;;;9.26;100.00
47524;BME280;33253;42.144;25.884;2023-03-23T06:34:37;100627.09;;;9.19;100.00
47524;BME280;33253;42.144;25.884;2023-03-23T06:37:05;100640.31;;;9.27;100.00
47524;BME280;33253;42.144;25.884;2023-03-23T06:39:31;100625.38;;;9.19;100.00
47524;BME280;33253;42.144;25.884;2023-03-23T06:41:57;100646.47;;;9.30;100.00
47524;BME280;33253;42.144;25.884;2023-03-23T06:44:24;100603.41;;;9.08;100.00
47524;BME280;33253;42.144;25.884;2023-03-23T06:46:50;100638.69;;;9.29;100.00
47524;BME280;33253;42.144;25.884;2023-03-23T06:49:15;100649.81;;;9.28;100.00
47524;BME280;33253;42.144;25.884;2023-03-23T06:51:41;100656.50;;;9.24;100.00
47524;BME280;33253;42.144;25.884;2023-03-23T06:54:06;100645.91;;;9.18;100.00
47524;BME280;33253;42.144;25.884;2023-03-23T06:56:32;100662.81;;;9.31;100.00
47524;BME280;33253;42.144;25.884;2023-03-23T06:58:58;100669.13;;;9.37;100.00
47524;BME280;33253;42.144;25.884;2023-03-23T07:01:23;100671.19;;;9.45;100.00
47524;BME280;33253;42.144;25.884;2023-03-23T07:03:48;100654.16;;;9.48;100.00
47524;BME280;33253;42.144;25.884;2023-03-23T07:06:14;100647.25;;;9.47;100.00
47524;BME280;33253;42.144;25.884;2023-03-23T07:08:40;100662.00;;;9.51;100.00
47524;BME280;33253;42.144;25.884;2023-03-23T07:11:05;100677.16;;;9.63;100.00
47524;BME280;33253;42.144;25.884;2023-03-23T07:13:33;100677.28;;;9.66;100.00
47524;BME280;33253;42.144;25.884;2023-03-23T07:15:58;100677.47;;;9.71;100.00
47524;BME280;33253;42.144;25.884;2023-03-23T07:18:24;100654.88;;;9.65;100.00
47524;BME280;33253;42.144;25.884;2023-03-23T07:20:51;100656.81;;;9.69;100.00
47524;BME280;33253;42.144;25.884;2023-03-23T07:23:17;100671.63;;;9.75;100.00
47524;BME280;33253;42.144;25.884;2023-03-23T07:25:43;100669.75;;;9.71;100.00
47524;BME280;33253;42.144;25.884;2023-03-23T07:28:10;100676.03;;;9.78;100.00
47524;BME280;33253;42.144;25.884;2023-03-23T07:30:36;100673.63;;;9.81;100.00
47524;BME280;33253;42.144;25.884;2023-03-23T07:33:05;100673.66;;;9.82;100.00
47524;BME280;33253;42.144;25.884;2023-03-23T07:35:31;100677.31;;;9.87;100.00
47524;BME280;33253;42.144;25.884;2023-03-23T07:37:56;100651.38;;;9.63;100.00
47524;BME280;33253;42.144;25.884;2023-03-23T07:40:22;100671.63;;;9.75;100.00
47524;BME280;33253;42.144;25.884;2023-03-23T07:42:53;100678.69;;;9.79;100.00
47524;BME280;33253;42.144;25.884;2023-03-23T07:45:19;100670.81;;;9.76;100.00
47524;BME280;33253;42.144;25.884;2023-03-23T07:47:44;100684.94;;;9.84;100.00
47524;BME280;33253;42.144;25.884;2023-03-23T07:50:10;100688.19;;;9.80;100.00
47524;BME280;33253;42.144;25.884;2023-03-23T07:52:37;100669.00;;;9.74;100.00
47524;BME280;33253;42.144;25.884;2023-03-23T07:55:04;100688.34;;;9.83;100.00
47524;BME280;33253;42.144;25.884;2023-03-23T07:57:30;100691.84;;;9.85;100.00
47524;BME280;33253;42.144;25.884;2023-03-23T07:59:56;100693.13;;;9.76;100.00
47524;BME280;33253;42.144;25.884;2023-03-23T08:02:23;100697.69;;;9.81;100.00
47524;BME280;33253;42.144;25.884;2023-03-23T08:04:49;100679.31;;;9.74;100.00
47524;BME280;33253;42.144;25.884;2023-03-23T08:07:15;100699.47;;;9.82;100.00
47524;BME280;33253;42.144;25.884;2023-03-23T08:09:42;100689.00;;;9.79;100.00
47524;BME280;33253;42.144;25.884;2023-03-23T08:12:07;100696.19;;;9.86;100.00
47524;BME280;33253;42.144;25.884;2023-03-23T08:14:33;100664.72;;;9.74;100.00
47524;BME280;33253;42.144;25.884;2023-03-23T08:16:58;100696.72;;;9.99;100.00
47524;BME280;33253;42.144;25.884;2023-03-23T08:19:24;100699.25;;;9.97;100.00
47524;BME280;33253;42.144;25.884;2023-03-23T08:21:49;100701.75;;;9.96;100.00
47524;BME280;33253;42.144;25.884;2023-03-23T08:24:15;100698.50;;;10.00;100.00
47524;BME280;33253;42.144;25.884;2023-03-23T08:26:41;100671.31;;;9.87;100.00
47524;BME280;33253;42.144;25.884;2023-03-23T08:29:07;100691.97;;;10.08;100.00
47524;BME280;33253;42.144;25.884;2023-03-23T08:31:33;100688.81;;;10.15;100.00
47524;BME280;33253;42.144;25.884;2023-03-23T08:34:01;100655.34;;;9.96;100.00
47524;BME280;33253;42.144;25.884;2023-03-23T08:36:27;100667.66;;;10.03;100.00
47524;BME280;33253;42.144;25.884;2023-03-23T08:38:53;100698.97;;;10.32;100.00
47524;BME280;33253;42.144;25.884;2023-03-23T08:41:19;100706.06;;;10.36;100.00
47524;BME280;33253;42.144;25.884;2023-03-23T08:43:45;100691.63;;;10.41;100.00
47524;BME280;33253;42.144;25.884;2023-03-23T08:46:11;100660.56;;;10.18;100.00
47524;BME280;33253;42.144;25.884;2023-03-23T08:48:38;100709.25;;;10.51;100.00
47524;BME280;33253;42.144;25.884;2023-03-23T08:51:05;100707.38;;;10.68;100.00
47524;BME280;33253;42.144;25.884;2023-03-23T08:53:32;100700.88;;;10.78;100.00
47524;BME280;33253;42.144;25.884;2023-03-23T08:56:08;100693.94;;;10.77;100.00
47524;BME280;33253;42.144;25.884;2023-03-23T08:58:35;100703.81;;;10.88;100.00
47524;BME280;33253;42.144;25.884;2023-03-23T09:01:01;100707.38;;;10.91;100.00
47524;BME280;33253;42.144;25.884;2023-03-23T09:03:27;100703.81;;;10.88;100.00
47524;BME280;33253;42.144;25.884;2023-03-23T09:05:53;100694.22;;;10.85;100.00
47524;BME280;33253;42.144;25.884;2023-03-23T09:08:39;100695.47;;;10.95;100.00
47524;BME280;33253;42.144;25.884;2023-03-23T09:11:07;100695.53;;;10.96;100.00
47524;BME280;33253;42.144;25.884;2023-03-23T09:13:35;100700.13;;;11.04;100.00
47524;BME280;33253;42.144;25.884;2023-03-23T09:16:01;100704.75;;;11.12;100.00
47524;BME280;33253;42.144;25.884;2023-03-23T09:18:27;100689.72;;;11.25;100.00
47524;BME280;33253;42.144;25.884;2023-03-23T09:20:53;100689.31;;;11.37;100.00
47524;BME280;33253;42.144;25.884;2023-03-23T09:23:19;100683.59;;;11.45;100.00
47524;BME280;33253;42.144;25.884;2023-03-23T09:25:46;100696.84;;;11.55;100.00
47524;BME280;33253;42.144;25.884;2023-03-23T09:28:12;100649.59;;;11.35;100.00
47524;BME280;33253;42.144;25.884;2023-03-23T09:30:40;100670.91;;;11.52;100.00
47524;BME280;33253;42.144;25.884;2023-03-23T09:33:06;100690.53;;;11.71;100.00
47524;BME280;33253;42.144;25.884;2023-03-23T09:35:34;100680.63;;;11.83;100.00
47524;BME280;33253;42.144;25.884;2023-03-23T09:38:01;100679.88;;;11.61;100.00
47524;BME280;33253;42.144;25.884;2023-03-23T09:46:04;100684.09;;;12.08;100.00
47524;BME280;33253;42.144;25.884;2023-03-23T09:48:55;100680.63;;;12.07;100.00
47524;BME280;33253;42.144;25.884;2023-03-23T09:54:28;100685.84;;;12.35;100.00
47524;BME280;33253;42.144;25.884;2023-03-23T09:56:55;100686.38;;;12.50;100.00
47524;BME280;33253;42.144;25.884;2023-03-23T09:59:40;100682.69;;;12.71;100.00
47524;BME280;33253;42.144;25.884;2023-03-23T10:02:24;100686.00;;;12.94;100.00
47524;BME280;33253;42.144;25.884;2023-03-23T10:04:54;100684.66;;;13.07;100.00
47524;BME280;33253;42.144;25.884;2023-03-23T10:07:23;100679.06;;;13.22;100.00
47524;BME280;33253;42.144;25.884;2023-03-23T10:10:00;100677.78;;;13.07;100.00
47524;BME280;33253;42.144;25.884;2023-03-23T10:17:58;100628.84;;;12.60;100.00
47524;BME280;33253;42.144;25.884;2023-03-23T10:20:57;100680.22;;;12.74;100.00
47524;BME280;33253;42.144;25.884;2023-03-23T10:28:57;100667.91;;;12.67;100.00
47524;BME280;33253;42.144;25.884;2023-03-23T10:31:31;100665.09;;;12.60;100.00
47524;BME280;33253;42.144;25.884;2023-03-23T10:34:04;100637.16;;;12.23;100.00
47524;BME280;33253;42.144;25.884;2023-03-23T10:39:25;100597.72;;;12.04;100.00
47524;BME280;33253;42.144;25.884;2023-03-23T10:41:52;100673.38;;;12.49;100.00
47524;BME280;33253;42.144;25.884;2023-03-23T10:44:23;100676.69;;;12.44;100.00
47524;BME280;33253;42.144;25.884;2023-03-23T10:47:04;100639.81;;;12.26;100.00
47524;BME280;33253;42.144;25.884;2023-03-23T10:50:06;100676.53;;;12.40;100.00
47524;BME280;33253;42.144;25.884;2023-03-23T10:52:37;100675.91;;;12.47;100.00
47524;BME280;33253;42.144;25.884;2023-03-23T10:55:14;100673.31;;;12.47;100.00
47524;BME280;33253;42.144;25.884;2023-03-23T10:57:46;100677.69;;;12.50;100.00
47524;BME280;33253;42.144;25.884;2023-03-23T11:00:19;100677.25;;;12.36;100.00
47524;BME280;33253;42.144;25.884;2023-03-23T11:05:37;100637.03;;;12.20;100.00
47524;BME280;33253;42.144;25.884;2023-03-23T11:08:20;100645.69;;;12.20;100.00
47524;BME280;33253;42.144;25.884;2023-03-23T11:10:57;100675.69;;;12.41;100.00
47524;BME280;33253;42.144;25.884;2023-03-23T11:13:29;100675.00;;;12.45;100.00
47524;BME280;33253;42.144;25.884;2023-03-23T11:15:55;100602.91;;;12.04;100.00
47524;BME280;33253;42.144;25.884;2023-03-23T11:18:23;100669.81;;;12.45;100.00
47524;BME280;33253;42.144;25.884;2023-03-23T11:20:57;100666.22;;;12.41;100.00
47524;BME280;33253;42.144;25.884;2023-03-23T11:23:27;100673.94;;;12.40;100.00
47524;BME280;33253;42.144;25.884;2023-03-23T11:25:58;100626.56;;;12.15;100.00
47524;BME280;33253;42.144;25.884;2023-03-23T11:28:32;100669.44;;;12.34;100.00
47524;BME280;33253;42.144;25.884;2023-03-23T11:31:01;100662.47;;;12.32;100.00
47524;BME280;33253;42.144;25.884;2023-03-23T11:33:37;100666.44;;;12.22;100.00
47524;BME280;33253;42.144;25.884;2023-03-23T11:36:06;100659.47;;;12.19;100.00
47524;BME280;33253;42.144;25.884;2023-03-23T11:38:33;100662.41;;;12.04;100.00
47524;BME280;33253;42.144;25.884;2023-03-23T11:41:00;100645.84;;;11.99;100.00
47524;BME280;33253;42.144;25.884;2023-03-23T11:43:25;100656.63;;;12.11;100.00
47524;BME280;33253;42.144;25.884;2023-03-23T11:46:05;100655.06;;;12.17;100.00
47524;BME280;33253;42.144;25.884;2023-03-23T11:51:36;100652.47;;;12.17;100.00
47524;BME280;33253;42.144;25.884;2023-03-23T11:56:43;100649.47;;;12.04;100.00
47524;BME280;33253;42.144;25.884;2023-03-23T11:59:15;100643.44;;;12.04;100.00
47524;BME280;33253;42.144;25.884;2023-03-23T12:01:51;100634.72;;;12.02;100.00
47524;BME280;33253;42.144;25.884;2023-03-23T12:26:31;100579.63;;;12.04;100.00
47524;BME280;33253;42.144;25.884;2023-03-23T12:29:19;100635.56;;;12.26;100.00
47524;BME280;33253;42.144;25.884;2023-03-23T12:34:53;100633.63;;;12.48;100.00
47524;BME280;33253;42.144;25.884;2023-03-23T12:37:23;100632.19;;;12.56;100.00
47524;BME280;33253;42.144;25.884;2023-03-23T12:48:20;100572.03;;;12.65;100.00
47524;BME280;33253;42.144;25.884;2023-03-23T12:51:24;100618.84;;;13.02;100.00
47524;BME280;33253;42.144;25.884;2023-03-23T13:00:24;100622.88;;;13.21;100.00
47524;BME280;33253;42.144;25.884;2023-03-23T13:07:53;100610.50;;;13.41;100.00
47524;BME280;33253;42.144;25.884;2023-03-23T13:10:34;100608.16;;;13.50;100.00
47524;BME280;33253;42.144;25.884;2023-03-23T13:13:03;100606.31;;;13.46;100.00
47524;BME280;33253;42.144;25.884;2023-03-23T13:15:44;100617.84;;;13.57;100.00
47524;BME280;33253;42.144;25.884;2023-03-23T13:18:31;100604.34;;;13.37;100.00
47524;BME280;33253;42.144;25.884;2023-03-23T13:24:17;100611.78;;;13.26;100.00
47524;BME280;33253;42.144;25.884;2023-03-23T13:26:45;100598.34;;;13.09;100.00
47524;BME280;33253;42.144;25.884;2023-03-23T13:31:41;100610.50;;;13.12;100.00
47524;BME280;33253;42.144;25.884;2023-03-23T13:34:25;100529.63;;;12.63;100.00
47524;BME280;33253;42.144;25.884;2023-03-23T13:37:03;100588.94;;;12.83;100.00
47524;BME280;33253;42.144;25.884;2023-03-23T13:39:35;100601.75;;;12.78;100.00
47524;BME280;33253;42.144;25.884;2023-03-23T13:42:05;100610.03;;;12.95;100.00
47524;BME280;33253;42.144;25.884;2023-03-23T13:47:25;100608.41;;;12.99;100.00
47524;BME280;33253;42.144;25.884;2023-03-23T13:52:55;100611.47;;;13.16;100.00
47524;BME280;33253;42.144;25.884;2023-03-23T14:03:03;100596.03;;;13.19;100.00
47524;BME280;33253;42.144;25.884;2023-03-23T14:05:37;100609.63;;;13.11;100.00
47524;BME280;33253;42.144;25.884;2023-03-23T14:08:12;100601.16;;;13.17;100.00
47524;BME280;33253;42.144;25.884;2023-03-23T14:11:00;100610.16;;;13.30;100.00
47524;BME280;33253;42.144;25.884;2023-03-23T14:16:23;100608.94;;;13.48;100.00
47524;BME280;33253;42.144;25.884;2023-03-23T14:19:00;100605.59;;;13.52;100.00
47524;BME280;33253;42.144;25.884;2023-03-23T14:21:40;100614.38;;;13.57;100.00
47524;BME280;33253;42.144;25.884;2023-03-23T14:24:19;100606.66;;;13.58;100.00
47524;BME280;33253;42.144;25.884;2023-03-23T14:26:45;100616.09;;;13.56;100.00
47524;BME280;33253;42.144;25.884;2023-03-23T14:29:12;100618.53;;;13.50;100.00
47524;BME280;33253;42.144;25.884;2023-03-23T14:31:39;100612.38;;;13.47;100.00
47524;BME280;33253;42.144;25.884;2023-03-23T14:34:14;100608.16;;;13.50;100.00
47524;BME280;33253;42.144;25.884;2023-03-23T14:36:40;100602.75;;;13.42;100.00
47524;BME280;33253;42.144;25.884;2023-03-23T14:39:23;100610.72;;;13.49;100.00
47524;BME280;33253;42.144;25.884;2023-03-23T14:41:52;100621.25;;;13.55;100.00
47524;BME280;33253;42.144;25.884;2023-03-23T14:44:30;100610.75;;;13.50;100.00
47524;BME280;33253;42.144;25.884;2023-03-23T14:46:58;100598.56;;;13.48;100.00